Time;durP1;ratioP1;P1;durP2;ratioP2;P2;SDS_P1;SDS_P2;PMS_P1;PMS_P2;Temp;Humidity;BMP_temperature;BMP_pressure;BME280_temperature;BME280_humidity;BME280_pressure;Samples;Min_cycle;Max_cycle;Signal;HPM_P1;HPM_P2
2023/01/03 00:02:24;;;;;;;1.37;1.27;;;10.10;99.90;;;;;;5015558;28;20166;-67
2023/01/03 00:04:49;;;;;;;1.03;0.93;;;10.10;99.90;;;;;;5015414;28;20576;-67
2023/01/03 00:07:32;;;;;;;0.93;0.77;;;10.10;99.90;;;;;;5015345;28;20163;-67
2023/01/03 00:09:59;;;;;;;1.00;0.93;;;10.10;99.90;;;;;;5014824;28;20272;-67
2023/01/03 00:12:24;;;;;;;1.20;1.10;;;10.10;99.90;;;;;;5015054;28;20934;-68
2023/01/03 00:14:50;;;;;;;1.40;1.07;;;10.10;99.90;;;;;;5015143;28;20442;-67
2023/01/03 00:17:18;;;;;;;0.80;0.80;;;10.10;99.90;;;;;;5014915;28;20174;-67
2023/01/03 00:19:44;;;;;;;1.17;1.07;;;10.10;99.90;;;;;;5014676;28;20191;-67
2023/01/03 00:22:11;;;;;;;1.87;1.10;;;10.10;99.90;;;;;;5015058;28;20425;-67
2023/01/03 00:24:36;;;;;;;1.43;1.23;;;10.10;99.90;;;;;;5014710;28;20183;-67
2023/01/03 00:27:02;;;;;;;1.37;1.20;;;10.10;99.90;;;;;;5014779;28;20422;-67
2023/01/03 00:29:28;;;;;;;1.43;1.13;;;10.10;99.90;;;;;;5014529;28;20245;-67
2023/01/03 00:31:54;;;;;;;2.30;1.00;;;10.10;99.90;;;;;;5014734;28;20938;-67
2023/01/03 00:34:19;;;;;;;0.90;0.90;;;10.00;99.90;;;;;;5014704;28;20265;-67
2023/01/03 00:36:45;;;;;;;1.00;0.70;;;10.10;99.90;;;;;;5014683;28;20210;-67
2023/01/03 00:39:11;;;;;;;0.80;0.80;;;10.00;99.90;;;;;;5014167;28;20219;-67
2023/01/03 00:41:36;;;;;;;1.13;1.03;;;10.00;99.90;;;;;;5014640;28;20171;-67
2023/01/03 00:44:03;;;;;;;0.97;0.90;;;9.90;99.90;;;;;;5014844;28;20425;-67
2023/01/03 00:46:29;;;;;;;2.40;1.10;;;9.90;99.90;;;;;;5014814;28;20202;-67
2023/01/03 00:48:54;;;;;;;0.70;0.70;;;9.90;99.90;;;;;;5014410;28;20438;-67
2023/01/03 00:51:23;;;;;;;1.43;1.10;;;9.90;99.90;;;;;;5014727;28;20418;-67
2023/01/03 00:53:52;;;;;;;1.30;0.90;;;9.90;99.90;;;;;;5014668;28;20187;-67
2023/01/03 00:56:20;;;;;;;1.60;1.07;;;9.90;99.90;;;;;;5014555;28;20433;-67
2023/01/03 00:58:46;;;;;;;1.20;1.10;;;9.90;99.90;;;;;;5014159;28;20472;-67
2023/01/03 01:01:15;;;;;;;1.33;0.90;;;10.00;99.90;;;;;;5014609;28;20449;-67
2023/01/03 01:03:44;;;;;;;1.50;1.40;;;9.90;99.90;;;;;;5013821;28;20171;-67
2023/01/03 01:06:20;;;;;;;2.50;1.50;;;9.90;99.90;;;;;;5014540;28;20413;-67
2023/01/03 01:08:47;;;;;;;1.50;1.23;;;9.90;99.90;;;;;;5013992;28;20464;-67
2023/01/03 01:11:14;;;;;;;1.50;1.40;;;9.90;99.90;;;;;;5014247;28;20493;-67
2023/01/03 01:13:40;;;;;;;1.30;1.20;;;9.80;99.90;;;;;;5014303;28;20425;-67
2023/01/03 01:16:09;;;;;;;2.10;0.97;;;9.90;99.90;;;;;;5014317;28;20414;-67
2023/01/03 01:18:35;;;;;;;1.70;1.40;;;9.90;99.90;;;;;;5013776;28;20472;-68
2023/01/03 01:21:10;;;;;;;1.93;1.33;;;9.70;99.90;;;;;;5014179;28;20406;-67
2023/01/03 01:23:37;;;;;;;1.23;1.13;;;9.60;99.90;;;;;;5012889;28;20790;-67
2023/01/03 01:26:04;;;;;;;1.07;0.97;;;9.60;99.90;;;;;;5013997;28;20449;-68
2023/01/03 01:28:30;;;;;;;2.00;1.10;;;9.50;99.90;;;;;;5013956;28;20444;-67
2023/01/03 01:31:00;;;;;;;3.23;1.30;;;9.50;99.90;;;;;;5014164;28;20449;-67
2023/01/03 01:33:26;;;;;;;1.20;1.10;;;9.50;99.90;;;;;;5013885;28;20430;-67
2023/01/03 01:35:52;;;;;;;1.27;1.17;;;9.60;99.90;;;;;;5013948;28;20418;-67
2023/01/03 01:38:17;;;;;;;1.23;1.00;;;9.60;99.90;;;;;;5013352;28;20807;-67
2023/01/03 01:40:43;;;;;;;1.13;1.03;;;9.60;99.90;;;;;;5013959;28;20182;-67
2023/01/03 01:46:28;;;;;;;1.90;1.00;;;9.60;99.90;;;;;;5013810;28;20217;-67
2023/01/03 01:48:59;;;;;;;1.23;1.13;;;9.60;99.90;;;;;;5013282;28;20555;-67
2023/01/03 01:51:28;;;;;;;1.60;1.30;;;9.50;99.90;;;;;;5013680;28;20479;-67
2023/01/03 01:53:59;;;;;;;1.23;1.13;;;9.40;99.90;;;;;;5013594;28;20472;-67
2023/01/03 01:56:29;;;;;;;0.93;0.93;;;9.40;99.90;;;;;;5013510;28;20417;-68
2023/01/03 01:58:55;;;;;;;1.07;0.97;;;9.30;99.90;;;;;;5013047;28;20472;-67
2023/01/03 02:01:22;;;;;;;1.60;1.23;;;9.30;99.90;;;;;;5013417;28;20437;-66
2023/01/03 02:04:15;;;;;;;1.33;1.23;;;9.30;99.90;;;;;;5013380;28;20472;-66
2023/01/03 02:06:41;;;;;;;1.40;1.00;;;9.30;99.90;;;;;;5013389;28;20943;-67
2023/01/03 02:09:06;;;;;;;2.00;1.13;;;9.30;99.90;;;;;;5012774;28;20469;-67
2023/01/03 02:11:39;;;;;;;1.63;1.33;;;9.30;99.90;;;;;;5013218;28;20175;-67
2023/01/03 02:14:19;;;;;;;3.27;1.20;;;9.40;99.90;;;;;;5012461;28;20160;-67
2023/01/03 02:16:56;;;;;;;2.80;1.53;;;9.30;99.90;;;;;;5013418;28;20413;-67
2023/01/03 02:19:50;;;;;;;3.53;1.30;;;9.30;99.90;;;;;;5012636;28;20461;-67
2023/01/03 02:22:39;;;;;;;2.80;1.17;;;9.30;99.90;;;;;;5013063;28;20416;-67
2023/01/03 02:25:13;;;;;;;1.77;1.20;;;9.20;99.90;;;;;;5013012;28;20410;-67
2023/01/03 02:27:57;;;;;;;1.60;1.17;;;9.10;99.90;;;;;;5012976;28;20516;-67
2023/01/03 02:30:53;;;;;;;1.60;1.30;;;9.00;99.90;;;;;;5012525;28;20458;-67
2023/01/03 02:33:31;;;;;;;1.20;1.10;;;9.00;99.90;;;;;;5012923;28;20410;-67
2023/01/03 02:36:06;;;;;;;1.80;1.33;;;8.90;99.90;;;;;;5012902;28;20421;-67
2023/01/03 02:38:41;;;;;;;1.37;1.27;;;8.90;99.90;;;;;;5012379;28;20467;-67
2023/01/03 02:41:39;;;;;;;1.20;1.10;;;8.90;99.90;;;;;;5012710;28;20476;-67
2023/01/03 02:44:09;;;;;;;1.10;1.00;;;8.90;99.90;;;;;;5012830;28;20457;-68
2023/01/03 02:46:50;;;;;;;1.77;1.43;;;8.90;99.90;;;;;;5012710;28;20497;-68
2023/01/03 02:49:29;;;;;;;1.57;1.20;;;8.80;99.90;;;;;;5012182;28;20965;-67
2023/01/03 02:51:59;;;;;;;1.50;1.40;;;8.80;99.90;;;;;;5012565;28;20422;-67
2023/01/03 02:54:36;;;;;;;1.80;1.70;;;8.80;99.90;;;;;;5012626;28;20418;-67
2023/01/03 02:57:10;;;;;;;2.50;1.30;;;8.80;99.90;;;;;;5012566;28;20579;-67
2023/01/03 02:59:43;;;;;;;1.50;1.40;;;8.70;99.90;;;;;;5010775;28;20461;-66
2023/01/03 03:02:10;;;;;;;1.53;1.27;;;8.70;99.90;;;;;;5012595;28;20472;-67
2023/01/03 03:04:38;;;;;;;2.10;1.33;;;8.70;99.90;;;;;;5012452;28;20796;-67
2023/01/03 03:07:18;;;;;;;0.93;0.93;;;8.70;99.90;;;;;;5012407;28;20422;-67
2023/01/03 03:15:21;;;;;;;1.40;1.20;;;8.80;99.90;;;;;;5012645;28;20421;-67
2023/01/03 03:17:50;;;;;;;1.80;1.40;;;8.80;99.90;;;;;;5012303;28;20457;-67
2023/01/03 03:25:54;;;;;;;1.30;1.20;;;8.80;99.90;;;;;;5016375;28;20416;-67
2023/01/03 03:28:34;;;;;;;2.30;1.97;;;8.80;99.90;;;;;;5015962;28;20432;-67
2023/01/03 03:31:09;;;;;;;1.67;1.00;;;8.70;99.90;;;;;;5016297;28;20421;-67
2023/01/03 03:33:59;;;;;;;0.83;0.83;;;8.80;99.90;;;;;;5016237;28;20508;-67
2023/01/03 03:36:53;;;;;;;1.50;1.40;;;8.70;99.90;;;;;;5016289;28;20422;-66
2023/01/03 03:45:48;;;;;;;1.30;1.20;;;8.60;99.90;;;;;;5017210;28;20421;-67
2023/01/03 03:48:24;;;;;;;2.67;1.77;;;8.60;99.90;;;;;;5015864;28;20516;-68
2023/01/03 03:51:00;;;;;;;2.00;1.13;;;8.50;99.90;;;;;;5015877;28;20943;-67
2023/01/03 03:53:30;;;;;;;6.33;1.40;;;8.60;99.90;;;;;;5015887;28;20508;-67
2023/01/03 03:56:01;;;;;;;1.70;1.60;;;8.60;99.90;;;;;;5015749;28;20937;-66
2023/01/03 03:58:31;;;;;;;1.57;1.30;;;8.60;99.90;;;;;;5015406;28;20457;-67
2023/01/03 04:00:59;;;;;;;3.73;1.90;;;8.60;99.90;;;;;;5015883;28;20420;-67
2023/01/03 04:03:25;;;;;;;3.00;1.47;;;8.50;99.90;;;;;;5015608;28;20410;-67
2023/01/03 04:05:57;;;;;;;1.50;1.27;;;8.40;99.90;;;;;;5015600;28;20421;-67
2023/01/03 04:08:22;;;;;;;2.70;1.40;;;8.30;99.90;;;;;;5014999;28;20417;-68
2023/01/03 04:10:48;;;;;;;1.70;1.57;;;8.20;99.90;;;;;;5015494;28;20519;-67
2023/01/03 04:13:14;;;;;;;1.87;1.20;;;8.10;99.90;;;;;;5015636;28;20202;-67
2023/01/03 04:15:39;;;;;;;2.60;2.00;;;8.10;99.90;;;;;;5015453;28;20442;-67
2023/01/03 04:18:05;;;;;;;1.40;1.20;;;8.00;99.90;;;;;;5015206;28;20249;-67
2023/01/03 04:20:31;;;;;;;2.70;1.53;;;8.00;99.90;;;;;;5015068;28;20187;-67
2023/01/03 04:22:56;;;;;;;1.97;1.20;;;7.90;99.90;;;;;;5015235;28;20229;-67
2023/01/03 04:25:22;;;;;;;1.40;1.30;;;7.90;99.90;;;;;;5015225;28;20171;-67
2023/01/03 04:27:47;;;;;;;2.63;1.53;;;7.90;99.90;;;;;;5013957;28;20182;-67
2023/01/03 04:30:13;;;;;;;1.57;1.47;;;7.90;99.90;;;;;;5014872;28;20286;-67
2023/01/03 04:32:38;;;;;;;2.10;1.63;;;7.80;99.90;;;;;;5015108;28;20182;-67
2023/01/03 04:35:04;;;;;;;1.50;1.40;;;7.80;99.90;;;;;;5015072;28;20660;-67
2023/01/03 04:37:30;;;;;;;3.30;2.27;;;7.80;99.90;;;;;;5013778;28;20181;-67
2023/01/03 04:39:55;;;;;;;2.43;2.23;;;7.70;99.90;;;;;;5014562;28;20446;-67
2023/01/03 04:45:06;;;;;;;1.87;1.30;;;7.70;99.90;;;;;;5015207;28;20197;-67
2023/01/03 04:47:32;;;;;;;3.10;1.87;;;7.60;99.90;;;;;;5014766;28;20427;-67
2023/01/03 04:49:57;;;;;;;1.60;1.50;;;7.60;99.90;;;;;;5014399;28;20958;-68
2023/01/03 04:52:23;;;;;;;1.90;1.80;;;7.70;99.90;;;;;;5014777;28;20875;-67
2023/01/03 04:54:48;;;;;;;2.60;1.73;;;7.60;99.90;;;;;;5014679;28;20638;-67
2023/01/03 04:57:14;;;;;;;4.33;3.70;;;7.60;99.90;;;;;;5014699;28;20171;-67
2023/01/03 04:59:40;;;;;;;4.40;3.43;;;7.70;99.90;;;;;;5014163;28;20210;-67
2023/01/03 05:02:05;;;;;;;2.37;2.17;;;7.60;99.90;;;;;;5014639;28;20413;-67
2023/01/03 05:04:31;;;;;;;4.93;2.30;;;7.60;99.90;;;;;;5014448;28;20175;-67
2023/01/03 05:06:56;;;;;;;3.50;1.93;;;7.60;99.90;;;;;;5013184;28;20183;-67
2023/01/03 05:09:22;;;;;;;1.80;1.63;;;7.60;99.90;;;;;;5014517;28;20217;-66
2023/01/03 05:11:49;;;;;;;4.93;2.17;;;7.60;99.90;;;;;;5014566;28;20179;-66
2023/01/03 05:14:14;;;;;;;2.33;1.87;;;7.60;99.90;;;;;;5014379;28;20417;-66
2023/01/03 05:16:40;;;;;;;2.10;1.80;;;7.70;99.90;;;;;;5014283;28;20500;-66
2023/01/03 05:19:05;;;;;;;2.07;1.87;;;7.60;99.90;;;;;;5013772;28;20206;-66
2023/01/03 05:27:01;;;;;;;1.80;1.57;;;7.60;99.90;;;;;;5014102;28;20464;-66
2023/01/03 05:29:28;;;;;;;2.10;1.60;;;7.60;99.90;;;;;;5013602;28;20954;-66
2023/01/03 05:31:54;;;;;;;1.80;1.70;;;7.50;99.90;;;;;;5013970;28;20456;-66
2023/01/03 05:34:19;;;;;;;2.03;1.93;;;7.50;99.90;;;;;;5013966;28;20919;-66
2023/01/03 05:36:45;;;;;;;2.73;1.93;;;7.50;99.90;;;;;;5013898;28;20599;-66
2023/01/03 05:39:11;;;;;;;2.33;2.13;;;7.50;99.90;;;;;;5013401;28;20203;-65
2023/01/03 05:44:21;;;;;;;10.40;2.90;;;7.50;99.90;;;;;;5013742;28;20483;-66
2023/01/03 05:46:47;;;;;;;3.00;1.80;;;7.40;99.90;;;;;;5013764;28;20485;-66
2023/01/03 05:49:12;;;;;;;2.00;1.90;;;7.40;99.90;;;;;;5013044;28;20448;-65
2023/01/03 05:51:38;;;;;;;1.80;1.70;;;7.40;99.90;;;;;;5013563;28;20357;-66
2023/01/03 05:54:04;;;;;;;2.73;2.53;;;7.40;99.90;;;;;;5013546;28;20210;-66
2023/01/03 05:56:30;;;;;;;2.60;2.30;;;7.40;99.90;;;;;;5013623;28;20640;-66
2023/01/03 05:58:56;;;;;;;2.50;2.30;;;7.40;99.90;;;;;;5012996;28;20211;-65
2023/01/03 06:01:25;;;;;;;4.03;2.90;;;7.40;99.90;;;;;;5013575;28;20413;-65
2023/01/03 06:03:51;;;;;;;6.10;3.80;;;7.30;99.90;;;;;;5013349;28;20930;-66
2023/01/03 06:06:16;;;;;;;2.97;2.10;;;7.20;99.90;;;;;;5013361;28;20425;-65
2023/01/03 06:08:42;;;;;;;3.73;2.57;;;7.10;99.90;;;;;;5013084;28;20213;-66
2023/01/03 06:11:13;;;;;;;3.17;2.73;;;7.10;99.90;;;;;;5013386;28;20179;-65
2023/01/03 06:13:39;;;;;;;2.67;2.47;;;7.10;99.90;;;;;;5013294;28;20533;-65
2023/01/03 06:18:50;;;;;;;2.53;2.23;;;7.10;99.90;;;;;;5012828;28;20476;-66
2023/01/03 06:21:15;;;;;;;4.27;2.47;;;7.10;99.90;;;;;;5013097;28;20410;-66
2023/01/03 06:23:41;;;;;;;2.60;2.40;;;7.10;99.90;;;;;;5013070;28;20169;-66
2023/01/03 06:26:07;;;;;;;3.93;2.67;;;7.10;99.90;;;;;;5012939;28;20178;-65
2023/01/03 06:28:32;;;;;;;7.47;3.03;;;7.10;99.90;;;;;;5012705;28;20195;-66
2023/01/03 06:30:58;;;;;;;3.90;2.80;;;7.00;99.90;;;;;;5012902;28;20631;-65
2023/01/03 06:33:23;;;;;;;7.47;3.30;;;7.00;99.90;;;;;;5012882;28;20175;-66
2023/01/03 06:35:49;;;;;;;3.83;3.27;;;7.00;99.90;;;;;;5011456;28;20660;-66
2023/01/03 06:38:14;;;;;;;5.63;3.07;;;7.00;99.90;;;;;;5012406;28;20218;-65
2023/01/03 06:40:46;;;;;;;3.60;2.30;;;6.90;99.90;;;;;;5012673;28;20628;-65
2023/01/03 06:43:12;;;;;;;3.17;2.30;;;6.90;99.90;;;;;;5012822;28;20171;-65
2023/01/03 06:53:52;;;;;;;4.17;3.50;;;6.80;99.90;;;;;;5012642;28;20488;-66
2023/01/03 06:56:17;;;;;;;3.50;2.07;;;6.80;99.90;;;;;;5012526;28;20417;-65
2023/01/03 06:58:43;;;;;;;2.47;2.20;;;6.70;99.90;;;;;;5012116;28;20213;-65
2023/01/03 07:01:08;;;;;;;2.80;2.20;;;6.80;99.90;;;;;;5011911;28;20182;-65
2023/01/03 07:03:34;;;;;;;2.20;2.00;;;6.80;99.90;;;;;;5012340;28;20209;-66
2023/01/03 07:05:59;;;;;;;2.63;2.43;;;6.80;99.90;;;;;;5012436;28;20213;-65
2023/01/03 07:08:25;;;;;;;4.80;2.50;;;6.80;99.90;;;;;;5011967;28;20640;-65
2023/01/03 07:10:50;;;;;;;2.90;2.53;;;6.80;99.90;;;;;;5012344;28;20211;-66
2023/01/03 07:16:00;;;;;;;3.93;2.50;;;6.60;99.90;;;;;;5012325;28;20718;-65
2023/01/03 07:18:25;;;;;;;2.87;2.30;;;6.60;99.90;;;;;;5011775;28;20461;-66
2023/01/03 07:20:51;;;;;;;2.73;2.47;;;6.50;99.90;;;;;;5012283;28;20166;-65
2023/01/03 07:23:16;;;;;;;5.83;4.13;;;6.40;99.90;;;;;;5012285;28;20218;-66
2023/01/03 07:25:42;;;;;;;4.30;2.87;;;6.40;99.90;;;;;;5012313;28;20204;-66
2023/01/03 07:28:12;;;;;;;4.60;4.00;;;6.30;99.90;;;;;;5012178;28;20167;-65
2023/01/03 07:30:40;;;;;;;5.50;3.10;;;6.40;99.90;;;;;;5012280;28;20600;-65
2023/01/03 07:33:08;;;;;;;5.27;3.30;;;6.40;99.90;;;;;;5012128;28;20421;-65
2023/01/03 07:35:34;;;;;;;4.57;3.20;;;6.50;99.90;;;;;;5012104;28;20422;-66
2023/01/03 07:38:00;;;;;;;3.43;3.13;;;6.50;99.90;;;;;;5012037;28;20449;-66
2023/01/03 07:40:26;;;;;;;4.70;3.00;;;6.50;99.90;;;;;;5011771;28;20438;-65
2023/01/03 07:45:42;;;;;;;3.53;3.23;;;6.60;99.90;;;;;;5012355;28;20178;-65
2023/01/03 07:48:08;;;;;;;4.90;3.50;;;6.70;99.90;;;;;;5012038;28;20426;-65
2023/01/03 07:50:35;;;;;;;2.97;2.63;;;6.70;99.90;;;;;;5011822;28;20437;-65
2023/01/03 07:53:00;;;;;;;5.33;3.37;;;6.80;99.90;;;;;;5011980;28;20476;-66
2023/01/03 07:55:27;;;;;;;5.10;3.10;;;6.90;99.90;;;;;;5011871;28;20418;-65
2023/01/03 07:57:53;;;;;;;6.27;3.20;;;6.90;99.90;;;;;;5011831;28;20663;-66
2023/01/03 08:00:19;;;;;;;3.80;3.40;;;6.80;99.90;;;;;;4990268;28;20970;-67
2023/01/03 08:02:44;;;;;;;4.60;3.63;;;6.80;99.90;;;;;;4987167;28;20425;-67
2023/01/03 08:05:10;;;;;;;7.13;3.10;;;7.10;99.90;;;;;;5010776;28;20178;-67
2023/01/03 08:07:35;;;;;;;4.87;3.60;;;7.40;99.90;;;;;;5011967;28;20243;-66
2023/01/03 08:15:35;;;;;;;3.60;3.30;;;9.30;99.90;;;;;;5008058;28;20940;-67
2023/01/03 08:18:02;;;;;;;11.73;3.77;;;10.00;99.90;;;;;;5015087;28;20454;-67
2023/01/03 08:20:28;;;;;;;5.40;4.17;;;10.40;99.90;;;;;;5012319;28;20195;-67
2023/01/03 08:22:53;;;;;;;5.60;3.83;;;10.70;99.90;;;;;;5015070;28;20924;-67
2023/01/03 08:25:19;;;;;;;3.80;3.50;;;10.70;99.90;;;;;;5015188;28;20233;-67
2023/01/03 08:27:44;;;;;;;5.80;4.20;;;10.60;99.90;;;;;;5014495;28;20253;-67
2023/01/03 08:30:10;;;;;;;4.37;3.67;;;10.30;99.90;;;;;;5011249;28;20286;-66
2023/01/03 08:32:37;;;;;;;5.53;5.03;;;9.90;99.90;;;;;;5014435;28;20202;-66
2023/01/03 08:35:03;;;;;;;4.90;4.47;;;9.80;99.90;;;;;;5014586;28;20175;-66
2023/01/03 08:37:29;;;;;;;4.30;3.57;;;9.40;99.90;;;;;;5014961;28;20422;-66
2023/01/03 08:40:01;;;;;;;5.40;4.37;;;9.10;99.90;;;;;;5010625;28;20465;-66
2023/01/03 08:42:26;;;;;;;5.43;3.87;;;8.90;99.90;;;;;;5014592;28;20236;-66
2023/01/03 08:45:05;;;;;;;5.20;3.80;;;8.80;99.90;;;;;;5014747;28;20521;-66
2023/01/03 08:47:31;;;;;;;9.57;5.50;;;8.70;99.90;;;;;;5013976;28;20208;-66
2023/01/03 08:49:58;;;;;;;6.43;4.30;;;8.70;99.90;;;;;;5010554;28;20442;-71
2023/01/03 08:52:23;;;;;;;7.40;5.20;;;8.80;99.90;;;;;;5013405;28;20418;-66
2023/01/03 08:54:49;;;;;;;16.03;11.00;;;8.90;99.90;;;;;;5013838;28;20437;-67
2023/01/03 08:57:14;;;;;;;11.23;7.90;;;9.10;99.90;;;;;;5014441;28;20179;-66
2023/01/03 08:59:40;;;;;;;7.33;5.30;;;9.00;99.90;;;;;;5009856;28;20211;-66
2023/01/03 09:02:05;;;;;;;8.03;5.47;;;9.00;99.90;;;;;;5014333;28;20171;-66
2023/01/03 09:04:31;;;;;;;6.90;4.53;;;9.00;99.90;;;;;;5012958;28;20183;-66
2023/01/03 09:06:56;;;;;;;6.13;5.43;;;9.00;99.90;;;;;;5014162;28;20738;-66
2023/01/03 09:09:22;;;;;;;8.07;5.30;;;9.10;99.90;;;;;;5010369;28;20313;-66
2023/01/03 09:11:47;;;;;;;9.47;6.00;;;9.20;99.90;;;;;;5013802;28;20246;-66
2023/01/03 09:14:13;;;;;;;8.70;7.57;;;9.20;99.90;;;;;;5014346;28;20174;-66
2023/01/03 09:16:39;;;;;;;9.43;5.93;;;9.40;99.90;;;;;;5013149;28;20179;-67
2023/01/03 09:19:04;;;;;;;10.50;5.50;;;9.70;99.90;;;;;;5012478;28;20730;-66
2023/01/03 09:21:30;;;;;;;7.13;6.00;;;9.70;99.90;;;;;;5011698;28;20171;-66
2023/01/03 09:23:57;;;;;;;7.53;6.30;;;9.60;99.90;;;;;;5013223;28;20572;-66
2023/01/03 09:26:23;;;;;;;5.90;5.30;;;9.40;99.90;;;;;;5014093;28;20171;-66
2023/01/03 09:28:49;;;;;;;9.17;6.97;;;9.60;99.90;;;;;;5013228;28;20450;-66
2023/01/03 09:31:14;;;;;;;6.80;5.17;;;9.70;99.90;;;;;;5010128;28;20186;-66
2023/01/03 09:33:40;;;;;;;4.60;4.20;;;9.90;99.90;;;;;;5013418;28;20284;-66
2023/01/03 09:36:06;;;;;;;4.90;4.50;;;10.10;99.90;;;;;;5013565;28;20179;-66
2023/01/03 09:38:31;;;;;;;6.03;5.03;;;10.30;99.90;;;;;;5013518;28;20213;-67
2023/01/03 09:41:04;;;;;;;5.80;4.00;;;10.50;99.90;;;;;;5009368;28;20422;-67
2023/01/03 09:43:41;;;;;;;7.30;4.97;;;10.70;99.90;;;;;;5007725;28;20182;-66
2023/01/03 09:46:17;;;;;;;6.43;4.50;;;10.90;99.90;;;;;;5012722;28;20437;-66
2023/01/03 09:48:43;;;;;;;4.40;4.00;;;11.30;99.90;;;;;;5022639;28;20544;-66
2023/01/03 10:05:32;;;;;;;7.07;6.20;;;14.10;99.90;;;;;;4993835;28;20420;-67
2023/01/03 10:08:22;;;;;;;5.63;4.17;;;14.70;99.90;;;;;;5011557;28;20808;-67
2023/01/03 10:11:10;;;;;;;4.50;4.00;;;14.80;99.90;;;;;;5009663;28;20192;-67
2023/01/03 10:13:57;;;;;;;9.00;8.07;;;14.70;99.90;;;;;;5012421;28;20425;-67
2023/01/03 10:16:29;;;;;;;6.60;5.83;;;14.40;99.90;;;;;;5013262;28;20414;-67
2023/01/03 10:19:28;;;;;;;9.97;6.43;;;14.10;99.90;;;;;;5012292;28;20466;-67
2023/01/03 10:22:21;;;;;;;4.63;4.30;;;13.90;99.90;;;;;;5028051;28;20954;-67
2023/01/03 10:24:55;;;;;;;3.10;2.80;;;14.20;99.90;;;;;;5012850;28;20409;-67
2023/01/03 10:27:24;;;;;;;3.90;2.90;;;14.40;99.90;;;;;;5012723;28;20488;-67
2023/01/03 10:29:54;;;;;;;4.60;2.80;;;14.50;99.90;;;;;;5009045;28;20442;-67
2023/01/03 10:32:34;;;;;;;3.03;2.70;;;14.50;99.90;;;;;;5012795;28;20471;-67
2023/01/03 10:35:19;;;;;;;3.30;2.30;;;14.20;99.90;;;;;;5012009;28;20808;-67
2023/01/03 10:37:44;;;;;;;2.53;2.33;;;13.90;99.90;;;;;;5012847;28;20784;-67
2023/01/03 10:40:12;;;;;;;2.63;1.77;;;14.30;99.90;;;;;;5006862;28;20453;-67
2023/01/03 10:42:40;;;;;;;2.53;2.40;;;14.20;99.90;;;;;;5010680;28;20620;-67
2023/01/03 10:45:11;;;;;;;2.60;1.63;;;14.40;99.90;;;;;;5011919;28;20976;-67
2023/01/03 10:47:36;;;;;;;1.97;1.50;;;15.30;99.90;;;;;;5011196;28;20529;-68
2023/01/03 10:50:04;;;;;;;1.97;1.77;;;16.80;99.90;;;;;;5008375;28;20512;-68
2023/01/03 10:52:34;;;;;;;1.93;1.83;;;18.70;98.70;;;;;;5011037;28;20536;-68
2023/01/03 10:55:02;;;;;;;1.80;1.70;;;20.20;93.70;;;;;;5012105;28;20406;-68
2023/01/03 10:57:38;;;;;;;5.03;1.60;;;22.00;89.00;;;;;;5011975;28;20926;-68
2023/01/03 11:00:21;;;;;;;1.37;1.20;;;23.00;75.80;;;;;;5008254;28;21239;-68
2023/01/03 11:02:48;;;;;;;2.57;1.40;;;24.90;67.60;;;;;;5012412;28;20413;-67
2023/01/03 11:05:27;;;;;;;2.87;2.40;;;25.00;62.50;;;;;;5014092;28;20504;-67
2023/01/03 11:07:56;;;;;;;1.20;1.10;;;24.90;58.50;;;;;;4997891;28;20413;-66
2023/01/03 11:10:25;;;;;;;1.53;1.10;;;22.80;60.00;;;;;;5028937;23;20607;-66
2023/01/03 11:12:51;;;;;;;1.30;1.20;;;22.50;61.20;;;;;;5004457;28;20439;-67
2023/01/03 11:15:18;;;;;;;1.70;1.20;;;23.70;61.00;;;;;;4992935;28;20427;-66
2023/01/03 11:18:13;;;;;;;1.53;1.43;;;25.80;57.20;;;;;;4992539;28;20175;-69
2023/01/03 11:20:49;;;;;;;1.37;1.10;;;27.50;59.20;;;;;;5002011;28;20969;-69
2023/01/03 11:23:37;;;;;;;1.73;1.00;;;28.20;49.80;;;;;;5012285;28;20421;-68
2023/01/03 11:26:13;;;;;;;1.40;1.30;;;28.80;47.40;;;;;;5007353;28;21013;-69
2023/01/03 11:28:57;;;;;;;1.40;1.20;;;29.80;45.30;;;;;;5007291;28;20446;-68
2023/01/03 11:31:48;;;;;;;2.00;1.73;;;28.10;44.80;;;;;;5010555;28;20449;-67
2023/01/03 11:34:25;;;;;;;2.73;1.80;;;27.80;45.70;;;;;;5019207;28;20450;-68
2023/01/03 11:37:04;;;;;;;1.10;1.10;;;28.70;44.50;;;;;;5014937;28;20830;-69
2023/01/03 11:39:55;;;;;;;1.83;0.90;;;28.60;43.10;;;;;;5001580;28;20594;-66
2023/01/03 11:42:33;;;;;;;1.43;1.30;;;27.70;44.10;;;;;;5005641;28;20444;-67
2023/01/03 11:45:34;;;;;;;2.20;0.93;;;27.80;44.60;;;;;;5007408;28;20433;-68
2023/01/03 11:48:48;;;;;;;1.37;1.10;;;29.40;42.20;;;;;;5012816;28;20847;-67
2023/01/03 11:51:25;;;;;;;1.40;1.30;;;29.60;41.40;;;;;;5005693;28;20441;-66
2023/01/03 11:54:02;;;;;;;3.50;2.40;;;30.00;39.90;;;;;;5013247;28;20433;-68
2023/01/03 11:56:33;;;;;;;1.70;1.60;;;29.30;39.40;;;;;;5011286;28;20530;-68
2023/01/03 11:59:27;;;;;;;2.00;1.90;;;28.70;40.00;;;;;;5013010;28;21029;-68
2023/01/03 12:02:28;;;;;;;3.27;1.97;;;30.00;38.80;;;;;;5011604;28;20441;-68
2023/01/03 12:05:09;;;;;;;1.90;1.27;;;31.80;56.00;;;;;;5011355;28;20444;-68
2023/01/03 12:07:52;;;;;;;1.27;1.17;;;33.10;51.10;;;;;;4998115;28;20523;-67
2023/01/03 12:10:25;;;;;;;1.40;1.30;;;33.60;48.40;;;;;;5002149;28;20465;-67
2023/01/03 12:13:31;;;;;;;1.40;1.10;;;34.70;41.10;;;;;;5015404;28;20833;-68
2023/01/03 12:16:07;;;;;;;1.17;1.10;;;34.60;40.90;;;;;;4984805;28;20422;-67
2023/01/03 12:18:38;;;;;;;1.20;1.10;;;32.20;44.70;;;;;;5014790;28;20628;-68
2023/01/03 12:21:11;;;;;;;1.63;1.10;;;31.30;46.10;;;;;;5010868;28;20786;-68
2023/01/03 12:23:49;;;;;;;1.23;1.13;;;30.90;47.70;;;;;;5015207;28;20404;-68
2023/01/03 12:26:16;;;;;;;1.00;0.87;;;29.40;49.20;;;;;;5014858;28;20418;-67
2023/01/03 12:28:49;;;;;;;2.07;1.10;;;28.30;50.40;;;;;;5005538;28;20491;-67
2023/01/03 12:31:18;;;;;;;1.33;1.17;;;28.90;50.90;;;;;;5011471;28;20443;-68
2023/01/03 12:34:14;;;;;;;2.00;1.30;;;28.40;51.10;;;;;;5006400;28;20430;-68
2023/01/03 12:37:02;;;;;;;1.43;1.27;;;27.30;51.60;;;;;;4995653;28;20509;-68
2023/01/03 12:39:55;;;;;;;1.70;1.20;;;26.70;52.60;;;;;;4998354;28;20606;-67
2023/01/03 12:42:31;;;;;;;1.10;1.00;;;26.00;52.20;;;;;;5013629;28;20504;-68
2023/01/03 12:45:24;;;;;;;0.90;0.90;;;25.00;53.20;;;;;;5014846;28;20418;-67
2023/01/03 12:48:09;;;;;;;2.93;1.00;;;24.90;52.70;;;;;;5009586;28;20429;-67
2023/01/03 12:50:49;;;;;;;2.23;1.20;;;25.50;52.90;;;;;;5006055;28;20528;-68
2023/01/03 12:53:26;;;;;;;1.00;0.90;;;27.50;50.60;;;;;;5013949;28;20456;-68
2023/01/03 12:55:58;;;;;;;1.40;0.90;;;27.50;49.70;;;;;;5008254;28;20430;-68
2023/01/03 12:58:38;;;;;;;0.73;0.73;;;27.70;50.00;;;;;;5022024;28;20465;-68
2023/01/03 13:01:27;;;;;;;1.60;0.90;;;28.20;50.20;;;;;;5009907;28;20430;-68
2023/01/03 13:03:56;;;;;;;1.37;1.27;;;28.30;49.40;;;;;;5014444;28;20553;-68
2023/01/03 13:06:34;;;;;;;1.50;1.30;;;27.10;50.10;;;;;;5013844;28;20430;-67
2023/01/03 13:09:22;;;;;;;3.43;1.10;;;26.90;50.00;;;;;;5002965;28;20547;-67
2023/01/03 13:11:53;;;;;;;2.53;1.10;;;26.40;49.30;;;;;;5013108;28;20429;-68
2023/01/03 13:14:27;;;;;;;2.33;0.90;;;26.50;49.90;;;;;;4996721;28;20442;-68
2023/01/03 13:17:18;;;;;;;1.30;1.03;;;25.80;50.60;;;;;;5010513;28;20426;-67
2023/01/03 13:19:57;;;;;;;1.03;0.80;;;25.60;49.40;;;;;;5003481;28;20466;-68
2023/01/03 13:22:44;;;;;;;1.90;1.00;;;24.20;50.20;;;;;;5013579;28;20793;-67
2023/01/03 13:25:27;;;;;;;1.27;0.80;;;25.20;49.50;;;;;;5013558;28;20413;-67
2023/01/03 13:27:55;;;;;;;1.20;1.07;;;23.70;50.80;;;;;;4994383;28;20411;-67
2023/01/03 13:30:33;;;;;;;1.83;1.17;;;21.70;51.60;;;;;;5001435;28;20445;-67
2023/01/03 13:33:05;;;;;;;2.20;0.90;;;19.80;52.30;;;;;;5012785;28;20786;-67
2023/01/03 13:35:56;;;;;;;1.03;0.93;;;18.50;53.70;;;;;;5013865;28;20442;-67
2023/01/03 13:38:36;;;;;;;3.27;2.20;;;16.90;51.10;;;;;;5005005;28;20463;-67
2023/01/03 13:41:23;;;;;;;1.93;1.83;;;15.60;54.90;;;;;;5006892;28;20432;-67
2023/01/03 13:43:52;;;;;;;3.90;1.60;;;15.00;58.80;;;;;;5002756;28;20441;-68
2023/01/03 13:46:27;;;;;;;1.43;1.33;;;15.00;61.50;;;;;;5003880;28;20431;-67
2023/01/03 13:49:03;;;;;;;2.17;1.20;;;15.30;60.20;;;;;;5013196;28;20480;-67
2023/01/03 13:51:37;;;;;;;2.10;1.80;;;15.60;59.50;;;;;;5004104;28;20839;-67
2023/01/03 13:54:12;;;;;;;1.43;1.33;;;15.30;62.30;;;;;;4994655;28;21017;-67
2023/01/03 13:56:44;;;;;;;1.20;1.10;;;15.10;64.40;;;;;;4993765;28;20477;-67
2023/01/03 13:59:33;;;;;;;0.97;0.90;;;14.50;66.70;;;;;;5001447;28;20462;-66
2023/01/03 14:02:10;;;;;;;2.00;1.80;;;14.20;71.50;;;;;;5012833;28;20449;-67
2023/01/03 14:05:00;;;;;;;1.03;0.80;;;14.40;71.10;;;;;;5005800;28;20425;-67
2023/01/03 14:07:38;;;;;;;1.47;1.30;;;14.00;70.80;;;;;;4998727;28;20434;-68
2023/01/03 14:10:29;;;;;;;2.27;1.50;;;14.00;71.90;;;;;;5008586;28;20900;-69
2023/01/03 14:13:06;;;;;;;2.20;1.70;;;14.10;73.80;;;;;;5012125;28;20456;-69
2023/01/03 14:15:32;;;;;;;1.90;1.47;;;14.30;76.40;;;;;;5005056;28;20437;-71
2023/01/03 14:18:14;;;;;;;1.97;1.20;;;13.80;79.20;;;;;;5007350;28;20511;-69
2023/01/03 14:20:46;;;;;;;1.33;0.87;;;13.40;83.90;;;;;;5002733;28;20548;-68
2023/01/03 14:23:13;;;;;;;1.30;1.03;;;13.10;88.90;;;;;;5011523;28;20437;-69
2023/01/03 14:25:41;;;;;;;1.20;1.00;;;12.90;91.70;;;;;;5012794;28;20934;-69